sensor_id;sensor_type;location;lat;lon;timestamp;pressure;altitude;pressure_sealevel;temperature;humidity
7940;BME280;4015;48.888;9.226;2023-04-15T00:01:00;156762.00;;;6.03;82.55
7940;BME280;4015;48.888;9.226;2023-04-15T00:03:25;156767.13;;;6.05;82.88
7940;BME280;4015;48.888;9.226;2023-04-15T00:05:51;156767.13;;;6.05;83.03
7940;BME280;4015;48.888;9.226;2023-04-15T00:08:16;156754.38;;;6.00;82.48
7940;BME280;4015;48.888;9.226;2023-04-15T00:10:42;156764.59;;;6.04;82.65
7940;BME280;4015;48.888;9.226;2023-04-15T00:13:10;156769.66;;;6.06;82.51
7940;BME280;4015;48.888;9.226;2023-04-15T00:15:35;156772.19;;;6.07;82.43
7940;BME280;4015;48.888;9.226;2023-04-15T00:18:01;156759.47;;;6.02;82.24
7940;BME280;4015;48.888;9.226;2023-04-15T00:20:27;156746.72;;;5.97;82.49
7940;BME280;4015;48.888;9.226;2023-04-15T00:22:52;156746.72;;;5.97;82.79
7940;BME280;4015;48.888;9.226;2023-04-15T00:25:17;156745.44;;;5.96;82.82
7940;BME280;4015;48.888;9.226;2023-04-15T00:27:43;156746.72;;;5.97;82.77
7940;BME280;4015;48.888;9.226;2023-04-15T00:30:08;156745.44;;;5.96;82.97
7940;BME280;4015;48.888;9.226;2023-04-15T00:32:34;156726.31;;;5.88;82.80
7940;BME280;4015;48.888;9.226;2023-04-15T00:34:59;156725.03;;;5.88;82.96
7940;BME280;4015;48.888;9.226;2023-04-15T00:37:25;156721.22;;;5.86;83.18
7940;BME280;4015;48.888;9.226;2023-04-15T00:39:50;156702.13;;;5.79;83.08
7940;BME280;4015;48.888;9.226;2023-04-15T00:42:16;156698.28;;;5.77;83.38
7940;BME280;4015;48.888;9.226;2023-04-15T00:44:42;156690.66;;;5.74;84.29
7940;BME280;4015;48.888;9.226;2023-04-15T00:47:07;156686.84;;;5.73;83.87
7940;BME280;4015;48.888;9.226;2023-04-15T00:49:33;156684.28;;;5.72;84.06
7940;BME280;4015;48.888;9.226;2023-04-15T00:51:59;156669.00;;;5.65;83.75
7940;BME280;4015;48.888;9.226;2023-04-15T00:54:24;156661.38;;;5.62;84.28
7940;BME280;4015;48.888;9.226;2023-04-15T00:56:49;156652.44;;;5.59;83.96
7940;BME280;4015;48.888;9.226;2023-04-15T00:59:16;156644.84;;;5.56;84.46
7940;BME280;4015;48.888;9.226;2023-04-15T01:01:43;156643.56;;;5.55;84.61
7940;BME280;4015;48.888;9.226;2023-04-15T01:04:09;156644.84;;;5.56;84.20
7940;BME280;4015;48.888;9.226;2023-04-15T01:06:35;156615.53;;;5.44;84.95
7940;BME280;4015;48.888;9.226;2023-04-15T01:09:01;156600.25;;;5.38;84.95
7940;BME280;4015;48.888;9.226;2023-04-15T01:11:27;156573.53;;;5.27;84.91
7940;BME280;4015;48.888;9.226;2023-04-15T01:13:54;156576.09;;;5.28;85.70
7940;BME280;4015;48.888;9.226;2023-04-15T01:16:21;156537.91;;;5.13;84.96
7940;BME280;4015;48.888;9.226;2023-04-15T01:18:47;156471.72;;;4.86;85.40
7940;BME280;4015;48.888;9.226;2023-04-15T01:21:13;156437.38;;;4.73;86.59
7940;BME280;4015;48.888;9.226;2023-04-15T01:23:38;156457.72;;;4.81;86.61
7940;BME280;4015;48.888;9.226;2023-04-15T01:26:05;156469.19;;;4.85;86.33
7940;BME280;4015;48.888;9.226;2023-04-15T01:28:32;156493.34;;;4.95;86.26
7940;BME280;4015;48.888;9.226;2023-04-15T01:31:07;156478.06;;;4.89;85.86
7940;BME280;4015;48.888;9.226;2023-04-15T01:33:33;156480.63;;;4.90;85.91
7940;BME280;4015;48.888;9.226;2023-04-15T01:35:58;156483.19;;;4.91;85.61
7940;BME280;4015;48.888;9.226;2023-04-15T01:38:25;156485.72;;;4.92;85.83
7940;BME280;4015;48.888;9.226;2023-04-15T01:40:50;156493.34;;;4.95;86.56
7940;BME280;4015;48.888;9.226;2023-04-15T01:43:16;156498.47;;;4.97;86.73
7940;BME280;4015;48.888;9.226;2023-04-15T01:45:41;156503.53;;;4.99;86.49
7940;BME280;4015;48.888;9.226;2023-04-15T01:48:07;156501.00;;;4.98;86.91
7940;BME280;4015;48.888;9.226;2023-04-15T01:50:32;156506.09;;;5.00;86.78
7940;BME280;4015;48.888;9.226;2023-04-15T01:52:58;156507.34;;;5.01;86.99
7940;BME280;4015;48.888;9.226;2023-04-15T01:55:23;156483.19;;;4.91;87.13
7940;BME280;4015;48.888;9.226;2023-04-15T01:57:48;156485.72;;;4.92;87.40
7940;BME280;4015;48.888;9.226;2023-04-15T02:00:14;156485.72;;;4.92;86.86
7940;BME280;4015;48.888;9.226;2023-04-15T02:02:39;156471.72;;;4.86;86.78
7940;BME280;4015;48.888;9.226;2023-04-15T02:05:05;156476.81;;;4.88;86.37
7940;BME280;4015;48.888;9.226;2023-04-15T02:07:30;156470.47;;;4.86;86.79
7940;BME280;4015;48.888;9.226;2023-04-15T02:09:56;156462.81;;;4.83;86.98
7940;BME280;4015;48.888;9.226;2023-04-15T02:12:22;156459.00;;;4.81;87.02
7940;BME280;4015;48.888;9.226;2023-04-15T02:14:47;156455.19;;;4.80;87.04
7940;BME280;4015;48.888;9.226;2023-04-15T02:17:12;156431.00;;;4.70;87.63
7940;BME280;4015;48.888;9.226;2023-04-15T02:19:37;156432.25;;;4.71;87.67
7940;BME280;4015;48.888;9.226;2023-04-15T02:22:04;156431.00;;;4.70;87.61
7940;BME280;4015;48.888;9.226;2023-04-15T02:24:31;156436.13;;;4.72;87.28
7940;BME280;4015;48.888;9.226;2023-04-15T02:26:57;156428.47;;;4.69;87.15
7940;BME280;4015;48.888;9.226;2023-04-15T02:29:22;156422.13;;;4.67;87.59
7940;BME280;4015;48.888;9.226;2023-04-15T02:31:48;156408.13;;;4.61;88.15
7940;BME280;4015;48.888;9.226;2023-04-15T02:34:13;156387.78;;;4.53;88.22
7940;BME280;4015;48.888;9.226;2023-04-15T02:36:39;156363.59;;;4.43;89.72
7940;BME280;4015;48.888;9.226;2023-04-15T02:39:05;156357.25;;;4.41;90.40
7940;BME280;4015;48.888;9.226;2023-04-15T02:41:30;156364.84;;;4.44;89.52
7940;BME280;4015;48.888;9.226;2023-04-15T02:43:56;156382.66;;;4.51;88.79
7940;BME280;4015;48.888;9.226;2023-04-15T02:46:21;156382.66;;;4.51;88.48
7940;BME280;4015;48.888;9.226;2023-04-15T02:48:47;156387.78;;;4.53;88.21
7940;BME280;4015;48.888;9.226;2023-04-15T02:51:18;156394.13;;;4.55;88.19
7940;BME280;4015;48.888;9.226;2023-04-15T02:53:45;156389.03;;;4.53;88.09
7940;BME280;4015;48.888;9.226;2023-04-15T02:56:11;156392.84;;;4.55;88.49
7940;BME280;4015;48.888;9.226;2023-04-15T02:58:37;156394.13;;;4.55;88.76
7940;BME280;4015;48.888;9.226;2023-04-15T03:01:03;156368.66;;;4.45;89.63
7940;BME280;4015;48.888;9.226;2023-04-15T03:03:28;156350.84;;;4.38;89.23
7940;BME280;4015;48.888;9.226;2023-04-15T03:05:54;156343.25;;;4.35;88.73
7940;BME280;4015;48.888;9.226;2023-04-15T03:08:19;156344.50;;;4.36;88.84
7940;BME280;4015;48.888;9.226;2023-04-15T03:10:47;156339.41;;;4.33;88.59
7940;BME280;4015;48.888;9.226;2023-04-15T03:13:13;156324.19;;;4.27;88.77
7940;BME280;4015;48.888;9.226;2023-04-15T03:15:38;156335.59;;;4.32;88.90
7940;BME280;4015;48.888;9.226;2023-04-15T03:18:03;156362.31;;;4.43;88.67
7940;BME280;4015;48.888;9.226;2023-04-15T03:20:29;156366.13;;;4.44;88.43
7940;BME280;4015;48.888;9.226;2023-04-15T03:22:54;156378.84;;;4.49;88.83
7940;BME280;4015;48.888;9.226;2023-04-15T03:25:19;156380.13;;;4.50;89.08
7940;BME280;4015;48.888;9.226;2023-04-15T03:27:45;156375.03;;;4.48;88.82
7940;BME280;4015;48.888;9.226;2023-04-15T03:30:10;156361.03;;;4.42;89.44
7940;BME280;4015;48.888;9.226;2023-04-15T03:32:36;156382.66;;;4.51;89.29
7940;BME280;4015;48.888;9.226;2023-04-15T03:35:02;156373.78;;;4.47;89.18
7940;BME280;4015;48.888;9.226;2023-04-15T03:37:27;156372.50;;;4.47;89.61
7940;BME280;4015;48.888;9.226;2023-04-15T03:39:53;156371.25;;;4.46;89.66
7940;BME280;4015;48.888;9.226;2023-04-15T03:42:18;156380.13;;;4.50;89.66
7940;BME280;4015;48.888;9.226;2023-04-15T03:44:43;156373.78;;;4.47;89.23
7940;BME280;4015;48.888;9.226;2023-04-15T03:47:08;156377.56;;;4.49;89.80
7940;BME280;4015;48.888;9.226;2023-04-15T03:49:35;156378.84;;;4.49;89.02
7940;BME280;4015;48.888;9.226;2023-04-15T03:52:00;156362.31;;;4.43;89.38
7940;BME280;4015;48.888;9.226;2023-04-15T03:54:26;156344.50;;;4.36;89.97
7940;BME280;4015;48.888;9.226;2023-04-15T03:56:51;156357.25;;;4.41;90.11
7940;BME280;4015;48.888;9.226;2023-04-15T03:59:16;156355.97;;;4.40;89.51
7940;BME280;4015;48.888;9.226;2023-04-15T04:01:42;156333.06;;;4.31;90.10
7940;BME280;4015;48.888;9.226;2023-04-15T04:04:07;156317.78;;;4.25;89.47
7940;BME280;4015;48.888;9.226;2023-04-15T04:06:33;156307.59;;;4.21;90.04
7940;BME280;4015;48.888;9.226;2023-04-15T04:08:58;156317.78;;;4.25;89.62
7940;BME280;4015;48.888;9.226;2023-04-15T04:11:23;156307.59;;;4.21;89.40
7940;BME280;4015;48.888;9.226;2023-04-15T04:13:49;156277.13;;;4.09;90.37
7940;BME280;4015;48.888;9.226;2023-04-15T04:16:14;156292.31;;;4.15;90.29
7940;BME280;4015;48.888;9.226;2023-04-15T04:18:40;156280.91;;;4.10;90.23
7940;BME280;4015;48.888;9.226;2023-04-15T04:21:05;156259.28;;;4.01;90.53
7940;BME280;4015;48.888;9.226;2023-04-15T04:23:31;156238.94;;;3.93;90.39
7940;BME280;4015;48.888;9.226;2023-04-15T04:25:57;156216.06;;;3.84;90.40
7940;BME280;4015;48.888;9.226;2023-04-15T04:28:22;156193.16;;;3.75;90.67
7940;BME280;4015;48.888;9.226;2023-04-15T04:30:48;156204.63;;;3.79;90.36
7940;BME280;4015;48.888;9.226;2023-04-15T04:33:13;156219.88;;;3.86;90.21
7940;BME280;4015;48.888;9.226;2023-04-15T04:35:38;156233.88;;;3.91;89.86
7940;BME280;4015;48.888;9.226;2023-04-15T04:38:04;156236.41;;;3.92;89.92
7940;BME280;4015;48.888;9.226;2023-04-15T04:40:29;156240.19;;;3.94;90.28
7940;BME280;4015;48.888;9.226;2023-04-15T04:42:55;156241.47;;;3.94;90.42
7940;BME280;4015;48.888;9.226;2023-04-15T04:45:20;156247.84;;;3.97;90.25
7940;BME280;4015;48.888;9.226;2023-04-15T04:47:46;156246.59;;;3.96;90.42
7940;BME280;4015;48.888;9.226;2023-04-15T04:50:12;156240.19;;;3.94;90.74
7940;BME280;4015;48.888;9.226;2023-04-15T04:52:37;156221.13;;;3.86;91.71
7940;BME280;4015;48.888;9.226;2023-04-15T04:55:03;156208.41;;;3.81;91.29
7940;BME280;4015;48.888;9.226;2023-04-15T04:57:28;156210.94;;;3.82;90.97
7940;BME280;4015;48.888;9.226;2023-04-15T04:59:53;156226.22;;;3.88;91.26
7940;BME280;4015;48.888;9.226;2023-04-15T05:02:19;156245.28;;;3.96;90.90
7940;BME280;4015;48.888;9.226;2023-04-15T05:04:44;156265.66;;;4.04;90.67
7940;BME280;4015;48.888;9.226;2023-04-15T05:07:10;156252.94;;;3.99;90.36
7940;BME280;4015;48.888;9.226;2023-04-15T05:09:35;156274.53;;;4.07;90.18
7940;BME280;4015;48.888;9.226;2023-04-15T05:12:02;156249.13;;;3.97;89.80
7940;BME280;4015;48.888;9.226;2023-04-15T05:14:28;156268.19;;;4.05;89.59
7940;BME280;4015;48.888;9.226;2023-04-15T05:16:53;156293.66;;;4.15;89.57
7940;BME280;4015;48.888;9.226;2023-04-15T05:19:18;156302.53;;;4.19;89.01
7940;BME280;4015;48.888;9.226;2023-04-15T05:21:44;156302.53;;;4.19;88.98
7940;BME280;4015;48.888;9.226;2023-04-15T05:24:09;156299.97;;;4.18;89.08
7940;BME280;4015;48.888;9.226;2023-04-15T05:26:34;156279.66;;;4.10;89.91
7940;BME280;4015;48.888;9.226;2023-04-15T05:29:00;156280.91;;;4.10;89.81
7940;BME280;4015;48.888;9.226;2023-04-15T05:31:25;156291.06;;;4.14;89.37
7940;BME280;4015;48.888;9.226;2023-04-15T05:33:50;156306.31;;;4.20;89.06
7940;BME280;4015;48.888;9.226;2023-04-15T05:36:16;156335.59;;;4.32;88.78
7940;BME280;4015;48.888;9.226;2023-04-15T05:38:41;156344.50;;;4.36;88.16
7940;BME280;4015;48.888;9.226;2023-04-15T05:41:07;156326.72;;;4.28;88.56
7940;BME280;4015;48.888;9.226;2023-04-15T05:43:33;156352.13;;;4.39;88.16
7940;BME280;4015;48.888;9.226;2023-04-15T05:45:58;156363.59;;;4.43;87.83
7940;BME280;4015;48.888;9.226;2023-04-15T05:48:24;156390.31;;;4.54;87.60
7940;BME280;4015;48.888;9.226;2023-04-15T05:50:49;156396.66;;;4.56;87.03
7940;BME280;4015;48.888;9.226;2023-04-15T05:53:14;156425.91;;;4.68;87.66
7940;BME280;4015;48.888;9.226;2023-04-15T05:55:40;156484.47;;;4.92;87.64
7940;BME280;4015;48.888;9.226;2023-04-15T05:58:05;156546.81;;;5.17;87.11
7940;BME280;4015;48.888;9.226;2023-04-15T06:00:31;156596.47;;;5.36;86.03
7940;BME280;4015;48.888;9.226;2023-04-15T06:02:57;156595.19;;;5.36;84.77
7940;BME280;4015;48.888;9.226;2023-04-15T06:05:23;156606.63;;;5.40;83.80
7940;BME280;4015;48.888;9.226;2023-04-15T06:07:49;156691.94;;;5.75;84.35
7940;BME280;4015;48.888;9.226;2023-04-15T06:10:14;156772.19;;;6.07;83.93
7940;BME280;4015;48.888;9.226;2023-04-15T06:12:40;156858.84;;;6.41;82.15
7940;BME280;4015;48.888;9.226;2023-04-15T06:15:06;156983.66;;;6.91;81.15
7940;BME280;4015;48.888;9.226;2023-04-15T06:17:33;157016.81;;;7.05;80.20
7940;BME280;4015;48.888;9.226;2023-04-15T06:19:59;157060.13;;;7.22;79.05
7940;BME280;4015;48.888;9.226;2023-04-15T06:22:24;157095.84;;;7.36;78.35
7940;BME280;4015;48.888;9.226;2023-04-15T06:24:50;157126.44;;;7.48;77.23
7940;BME280;4015;48.888;9.226;2023-04-15T06:27:16;157164.66;;;7.64;76.93
7940;BME280;4015;48.888;9.226;2023-04-15T06:29:41;157200.34;;;7.78;77.82
7940;BME280;4015;48.888;9.226;2023-04-15T06:32:07;157173.63;;;7.67;76.23
7940;BME280;4015;48.888;9.226;2023-04-15T06:34:32;157260.28;;;8.02;76.30
7940;BME280;4015;48.888;9.226;2023-04-15T06:36:58;157333.00;;;8.31;76.16
7940;BME280;4015;48.888;9.226;2023-04-15T06:39:23;157444.03;;;8.75;73.89
7940;BME280;4015;48.888;9.226;2023-04-15T06:41:48;157484.84;;;8.91;72.40
7940;BME280;4015;48.888;9.226;2023-04-15T06:44:14;157354.72;;;8.40;73.44
7940;BME280;4015;48.888;9.226;2023-04-15T06:46:40;157384.06;;;8.51;74.43
7940;BME280;4015;48.888;9.226;2023-04-15T06:49:05;157473.38;;;8.87;74.11
7940;BME280;4015;48.888;9.226;2023-04-15T06:51:30;157433.81;;;8.71;73.41
7940;BME280;4015;48.888;9.226;2023-04-15T06:53:56;157376.38;;;8.48;74.12
7940;BME280;4015;48.888;9.226;2023-04-15T06:56:22;157320.25;;;8.26;74.30
7940;BME280;4015;48.888;9.226;2023-04-15T06:58:47;157413.41;;;8.63;74.79
7940;BME280;4015;48.888;9.226;2023-04-15T07:01:12;157475.94;;;8.88;73.17
7940;BME280;4015;48.888;9.226;2023-04-15T07:03:38;157553.78;;;9.19;72.22
7940;BME280;4015;48.888;9.226;2023-04-15T07:06:03;157567.81;;;9.25;71.76
7940;BME280;4015;48.888;9.226;2023-04-15T07:08:31;157516.72;;;9.04;72.56
7940;BME280;4015;48.888;9.226;2023-04-15T07:10:58;157451.66;;;8.78;73.43
7940;BME280;4015;48.888;9.226;2023-04-15T07:13:23;157376.38;;;8.48;74.52
7940;BME280;4015;48.888;9.226;2023-04-15T07:15:49;157298.59;;;8.17;75.66
7940;BME280;4015;48.888;9.226;2023-04-15T07:18:14;157260.28;;;8.02;76.68
7940;BME280;4015;48.888;9.226;2023-04-15T07:20:40;157260.28;;;8.02;76.79
7940;BME280;4015;48.888;9.226;2023-04-15T07:23:05;157232.22;;;7.91;76.58
7940;BME280;4015;48.888;9.226;2023-04-15T07:25:31;157261.56;;;8.02;77.56
7940;BME280;4015;48.888;9.226;2023-04-15T07:27:56;157288.34;;;8.13;77.36
7940;BME280;4015;48.888;9.226;2023-04-15T07:30:22;157507.81;;;9.01;76.14
7940;BME280;4015;48.888;9.226;2023-04-15T07:32:47;157742.69;;;9.94;71.50
7940;BME280;4015;48.888;9.226;2023-04-15T07:35:13;157968.81;;;10.85;69.54
7940;BME280;4015;48.888;9.226;2023-04-15T07:37:38;158113.19;;;11.42;66.54
7940;BME280;4015;48.888;9.226;2023-04-15T07:40:04;158196.25;;;11.75;66.48
7940;BME280;4015;48.888;9.226;2023-04-15T07:42:33;158349.75;;;12.36;64.96
7940;BME280;4015;48.888;9.226;2023-04-15T07:44:58;158374.06;;;12.46;62.56
7940;BME280;4015;48.888;9.226;2023-04-15T07:47:24;158412.41;;;12.61;63.98
7940;BME280;4015;48.888;9.226;2023-04-15T07:49:49;158470.00;;;12.84;62.49
7940;BME280;4015;48.888;9.226;2023-04-15T07:52:15;158540.34;;;13.12;62.25
7940;BME280;4015;48.888;9.226;2023-04-15T07:54:41;158553.13;;;13.17;61.84
7940;BME280;4015;48.888;9.226;2023-04-15T07:57:06;158574.91;;;13.26;61.10
7940;BME280;4015;48.888;9.226;2023-04-15T07:59:32;158591.59;;;13.33;61.61
7940;BME280;4015;48.888;9.226;2023-04-15T08:01:58;158713.16;;;13.81;60.78
7940;BME280;4015;48.888;9.226;2023-04-15T08:04:23;158891.19;;;14.52;58.71
7940;BME280;4015;48.888;9.226;2023-04-15T08:06:49;158737.50;;;13.91;58.44
7940;BME280;4015;48.888;9.226;2023-04-15T08:09:15;158964.16;;;14.81;57.83
7940;BME280;4015;48.888;9.226;2023-04-15T08:11:40;158878.38;;;14.47;59.36
7940;BME280;4015;48.888;9.226;2023-04-15T08:14:06;158882.19;;;14.48;58.48
7940;BME280;4015;48.888;9.226;2023-04-15T08:16:31;158884.75;;;14.49;58.45
7940;BME280;4015;48.888;9.226;2023-04-15T08:18:57;159115.31;;;15.41;57.31
7940;BME280;4015;48.888;9.226;2023-04-15T08:21:23;159158.84;;;15.58;55.34
7940;BME280;4015;48.888;9.226;2023-04-15T08:23:50;159271.72;;;16.03;54.43
7940;BME280;4015;48.888;9.226;2023-04-15T08:26:16;159619.22;;;17.41;53.83
7940;BME280;4015;48.888;9.226;2023-04-15T08:28:44;159746.28;;;17.92;52.51
7940;BME280;4015;48.888;9.226;2023-04-15T08:31:10;160053.06;;;19.13;49.42
7940;BME280;4015;48.888;9.226;2023-04-15T08:33:36;159825.84;;;18.23;51.44
7940;BME280;4015;48.888;9.226;2023-04-15T08:36:01;159877.16;;;18.44;49.75
7940;BME280;4015;48.888;9.226;2023-04-15T08:38:27;159949.06;;;18.72;50.80
7940;BME280;4015;48.888;9.226;2023-04-15T08:40:52;159970.91;;;18.81;47.08
7940;BME280;4015;48.888;9.226;2023-04-15T08:43:21;160195.66;;;19.70;43.37
7940;BME280;4015;48.888;9.226;2023-04-15T08:45:51;160118.53;;;19.39;45.82
7940;BME280;4015;48.888;9.226;2023-04-15T08:48:17;160204.66;;;19.74;45.11
7940;BME280;4015;48.888;9.226;2023-04-15T08:50:44;160184.09;;;19.65;44.41
7940;BME280;4015;48.888;9.226;2023-04-15T08:53:10;160244.47;;;19.89;45.03
7940;BME280;4015;48.888;9.226;2023-04-15T08:55:45;160351.09;;;20.32;43.84
7940;BME280;4015;48.888;9.226;2023-04-15T08:58:11;160402.53;;;20.52;43.60
7940;BME280;4015;48.888;9.226;2023-04-15T09:00:38;160438.50;;;20.66;44.08
7940;BME280;4015;48.888;9.226;2023-04-15T09:03:04;160230.31;;;19.84;44.60
7940;BME280;4015;48.888;9.226;2023-04-15T09:05:33;160239.34;;;19.87;46.20
7940;BME280;4015;48.888;9.226;2023-04-15T09:07:59;160181.53;;;19.64;46.71
7940;BME280;4015;48.888;9.226;2023-04-15T09:10:25;160092.84;;;19.29;46.35
7940;BME280;4015;48.888;9.226;2023-04-15T09:12:51;160015.84;;;18.99;47.17
7940;BME280;4015;48.888;9.226;2023-04-15T09:15:17;160008.13;;;18.96;48.55
7940;BME280;4015;48.888;9.226;2023-04-15T09:17:43;160153.22;;;19.53;47.12
7940;BME280;4015;48.888;9.226;2023-04-15T09:20:09;160223.91;;;19.81;47.17
7940;BME280;4015;48.888;9.226;2023-04-15T09:22:35;160243.19;;;19.89;47.69
7940;BME280;4015;48.888;9.226;2023-04-15T09:25:02;159952.94;;;18.74;48.60
7940;BME280;4015;48.888;9.226;2023-04-15T09:27:27;159742.41;;;17.90;48.62
7940;BME280;4015;48.888;9.226;2023-04-15T09:29:53;159582.00;;;17.26;50.15
7940;BME280;4015;48.888;9.226;2023-04-15T09:32:18;159464.03;;;16.80;51.30
7940;BME280;4015;48.888;9.226;2023-04-15T09:34:45;159535.81;;;17.08;51.72
7940;BME280;4015;48.888;9.226;2023-04-15T09:37:10;159548.66;;;17.13;51.85
7940;BME280;4015;48.888;9.226;2023-04-15T09:39:51;159561.50;;;17.18;51.78
7940;BME280;4015;48.888;9.226;2023-04-15T09:42:17;159474.28;;;16.84;52.04
7940;BME280;4015;48.888;9.226;2023-04-15T09:44:48;159534.53;;;17.08;52.44
7940;BME280;4015;48.888;9.226;2023-04-15T09:47:30;159494.81;;;16.92;52.81
7940;BME280;4015;48.888;9.226;2023-04-15T09:49:59;159665.38;;;17.60;51.03
7940;BME280;4015;48.888;9.226;2023-04-15T09:52:25;159769.34;;;18.01;49.66
7940;BME280;4015;48.888;9.226;2023-04-15T09:54:56;159670.53;;;17.62;49.05
7940;BME280;4015;48.888;9.226;2023-04-15T09:57:22;159678.19;;;17.65;51.33
7940;BME280;4015;48.888;9.226;2023-04-15T09:59:49;159693.59;;;17.71;51.15
7940;BME280;4015;48.888;9.226;2023-04-15T10:02:14;159777.06;;;18.04;49.48
7940;BME280;4015;48.888;9.226;2023-04-15T10:04:40;159911.81;;;18.57;47.09
7940;BME280;4015;48.888;9.226;2023-04-15T10:07:11;160141.69;;;19.49;44.54
7940;BME280;4015;48.888;9.226;2023-04-15T10:09:37;160085.16;;;19.26;45.05
7940;BME280;4015;48.888;9.226;2023-04-15T10:12:04;160074.88;;;19.22;43.86
7940;BME280;4015;48.888;9.226;2023-04-15T10:14:34;160020.97;;;19.01;46.09
7940;BME280;4015;48.888;9.226;2023-04-15T10:17:03;160080.03;;;19.24;45.60
7940;BME280;4015;48.888;9.226;2023-04-15T10:19:32;160085.16;;;19.26;45.43
7940;BME280;4015;48.888;9.226;2023-04-15T10:21:58;159891.28;;;18.49;48.50
7940;BME280;4015;48.888;9.226;2023-04-15T10:24:24;160137.78;;;19.47;46.78
7940;BME280;4015;48.888;9.226;2023-04-15T10:26:50;160144.25;;;19.50;47.25
7940;BME280;4015;48.888;9.226;2023-04-15T10:29:16;160173.84;;;19.61;46.63
7940;BME280;4015;48.888;9.226;2023-04-15T10:31:42;159951.66;;;18.73;46.50
7940;BME280;4015;48.888;9.226;2023-04-15T10:34:08;159995.28;;;18.91;46.99
7940;BME280;4015;48.888;9.226;2023-04-15T10:36:35;160185.38;;;19.66;46.54
7940;BME280;4015;48.888;9.226;2023-04-15T10:39:00;160180.25;;;19.64;45.66
7940;BME280;4015;48.888;9.226;2023-04-15T10:41:27;160258.59;;;19.95;45.89
7940;BME280;4015;48.888;9.226;2023-04-15T10:46:34;160166.09;;;19.58;45.21
7940;BME280;4015;48.888;9.226;2023-04-15T10:51:31;160362.63;;;20.36;44.13
7940;BME280;4015;48.888;9.226;2023-04-15T10:53:58;160564.44;;;21.16;44.24
7940;BME280;4015;48.888;9.226;2023-04-15T10:56:24;160856.41;;;22.32;41.92
7940;BME280;4015;48.888;9.226;2023-04-15T10:58:50;160830.69;;;22.22;40.94
7940;BME280;4015;48.888;9.226;2023-04-15T11:01:16;160699.50;;;21.70;39.81
7940;BME280;4015;48.888;9.226;2023-04-15T11:03:43;160784.34;;;22.03;40.48
7940;BME280;4015;48.888;9.226;2023-04-15T11:06:08;160712.34;;;21.75;40.74
7940;BME280;4015;48.888;9.226;2023-04-15T11:08:53;160546.44;;;21.09;43.48
7940;BME280;4015;48.888;9.226;2023-04-15T11:11:19;160307.41;;;20.14;42.55
7940;BME280;4015;48.888;9.226;2023-04-15T11:13:49;160190.53;;;19.68;45.84
7940;BME280;4015;48.888;9.226;2023-04-15T11:16:15;160100.56;;;19.32;47.68
7940;BME280;4015;48.888;9.226;2023-04-15T11:18:41;160010.69;;;18.97;47.66
7940;BME280;4015;48.888;9.226;2023-04-15T11:21:07;159786.03;;;18.08;48.20
7940;BME280;4015;48.888;9.226;2023-04-15T11:23:41;159680.75;;;17.66;47.95
7940;BME280;4015;48.888;9.226;2023-04-15T11:26:12;159519.16;;;17.02;50.49
7940;BME280;4015;48.888;9.226;2023-04-15T11:28:39;159494.81;;;16.92;52.04
7940;BME280;4015;48.888;9.226;2023-04-15T11:31:16;159546.09;;;17.12;48.88
7940;BME280;4015;48.888;9.226;2023-04-15T11:33:58;159682.09;;;17.66;48.18
7940;BME280;4015;48.888;9.226;2023-04-15T11:36:26;159784.75;;;18.07;48.25
7940;BME280;4015;48.888;9.226;2023-04-15T11:38:53;159670.53;;;17.62;48.33
7940;BME280;4015;48.888;9.226;2023-04-15T11:41:22;159716.75;;;17.80;49.34
7940;BME280;4015;48.888;9.226;2023-04-15T11:43:48;159594.84;;;17.32;47.21
7940;BME280;4015;48.888;9.226;2023-04-15T11:46:14;159647.41;;;17.52;46.75
7940;BME280;4015;48.888;9.226;2023-04-15T11:48:42;159598.66;;;17.33;48.56
7940;BME280;4015;48.888;9.226;2023-04-15T11:51:09;159452.50;;;16.75;50.33
7940;BME280;4015;48.888;9.226;2023-04-15T11:53:39;159299.88;;;16.14;54.26
7940;BME280;4015;48.888;9.226;2023-04-15T11:56:06;159099.94;;;15.35;55.55
7940;BME280;4015;48.888;9.226;2023-04-15T11:58:34;159131.97;;;15.48;57.34
7940;BME280;4015;48.888;9.226;2023-04-15T12:01:01;159184.53;;;15.69;56.00
7940;BME280;4015;48.888;9.226;2023-04-15T12:03:36;159302.47;;;16.15;59.86
7940;BME280;4015;48.888;9.226;2023-04-15T12:06:10;159344.75;;;16.32;56.80
7940;BME280;4015;48.888;9.226;2023-04-15T12:14:08;159079.41;;;15.27;53.61
7940;BME280;4015;48.888;9.226;2023-04-15T12:16:36;158853.97;;;14.37;57.59
7940;BME280;4015;48.888;9.226;2023-04-15T12:19:08;158713.16;;;13.81;60.78
7940;BME280;4015;48.888;9.226;2023-04-15T12:21:36;158587.72;;;13.31;61.28
7940;BME280;4015;48.888;9.226;2023-04-15T12:24:04;158530.13;;;13.08;66.03
7940;BME280;4015;48.888;9.226;2023-04-15T12:29:06;158278.16;;;12.08;71.52
7940;BME280;4015;48.888;9.226;2023-04-15T12:31:34;158203.97;;;11.78;71.23
7940;BME280;4015;48.888;9.226;2023-04-15T12:34:01;158118.34;;;11.44;70.59
7940;BME280;4015;48.888;9.226;2023-04-15T12:36:27;157979.03;;;10.89;73.32
7940;BME280;4015;48.888;9.226;2023-04-15T12:38:55;157970.06;;;10.85;68.96
7940;BME280;4015;48.888;9.226;2023-04-15T12:41:21;158032.69;;;11.10;65.88
7940;BME280;4015;48.888;9.226;2023-04-15T12:43:48;158150.28;;;11.57;66.99
7940;BME280;4015;48.888;9.226;2023-04-15T12:46:14;158251.31;;;11.97;67.71
7940;BME280;4015;48.888;9.226;2023-04-15T12:48:39;158260.28;;;12.01;62.19
7940;BME280;4015;48.888;9.226;2023-04-15T12:51:05;158289.63;;;12.12;56.99
7940;BME280;4015;48.888;9.226;2023-04-15T12:53:31;158358.72;;;12.40;60.10
7940;BME280;4015;48.888;9.226;2023-04-15T12:55:56;158393.25;;;12.54;60.07
7940;BME280;4015;48.888;9.226;2023-04-15T12:58:21;158443.13;;;12.74;60.24
7940;BME280;4015;48.888;9.226;2023-04-15T13:00:47;158510.91;;;13.01;61.70
7940;BME280;4015;48.888;9.226;2023-04-15T13:03:13;158545.50;;;13.14;59.20
7940;BME280;4015;48.888;9.226;2023-04-15T13:05:39;158545.50;;;13.14;60.94
7940;BME280;4015;48.888;9.226;2023-04-15T13:08:05;158563.44;;;13.21;60.99
7940;BME280;4015;48.888;9.226;2023-04-15T13:10:31;158586.44;;;13.31;60.68
7940;BME280;4015;48.888;9.226;2023-04-15T13:12:56;158600.53;;;13.36;59.80
7940;BME280;4015;48.888;9.226;2023-04-15T13:15:22;158610.78;;;13.40;60.06
7940;BME280;4015;48.888;9.226;2023-04-15T13:17:48;158591.59;;;13.33;55.24
7940;BME280;4015;48.888;9.226;2023-04-15T13:20:14;158603.09;;;13.37;59.71
7940;BME280;4015;48.888;9.226;2023-04-15T13:22:39;158647.88;;;13.55;58.04
7940;BME280;4015;48.888;9.226;2023-04-15T13:25:06;158718.31;;;13.83;60.97